Time;durP1;ratioP1;P1;durP2;ratioP2;P2;SDS_P1;SDS_P2;PMS_P1;PMS_P2;Temp;Humidity;BMP_temperature;BMP_pressure;BME280_temperature;BME280_humidity;BME280_pressure;Samples;Min_cycle;Max_cycle;Signal;HPM_P1;HPM_P2
2022/03/02 00:00:47;;;;;;;38.92;15.75;;;;;;;-0.44;73.70;101146.19;5009354;28;20028;-69
2022/03/02 00:03:14;;;;;;;32.97;16.75;;;;;;;-0.42;73.77;101138.44;5008159;28;20050;-71
2022/03/02 00:05:39;;;;;;;39.05;17.15;;;;;;;-0.44;74.12;101145.34;5001234;28;20042;-68
2022/03/02 00:08:07;;;;;;;35.40;15.45;;;;;;;-0.49;73.98;101135.91;5000786;28;20742;-69
2022/03/02 00:10:32;;;;;;;37.22;16.38;;;;;;;-0.44;74.30;101132.47;5001958;28;20402;-71
2022/03/02 00:12:58;;;;;;;37.25;17.27;;;;;;;-0.49;74.28;101128.16;5007763;28;20696;-68
2022/03/02 00:15:23;;;;;;;37.25;15.68;;;;;;;-0.48;74.72;101131.63;5008341;28;20030;-67
2022/03/02 00:17:49;;;;;;;30.48;15.70;;;;;;;-0.50;74.66;101125.63;5008488;28;20038;-70
2022/03/02 00:20:14;;;;;;;42.92;17.05;;;;;;;-0.53;75.10;101129.06;5006879;28;20062;-68
2022/03/02 00:22:40;;;;;;;35.63;15.45;;;;;;;-0.53;74.86;101130.78;5006525;28;20129;-68
2022/03/02 00:25:06;;;;;;;45.92;17.80;;;;;;;-0.56;75.33;101125.66;5006774;28;20034;-68
2022/03/02 00:27:32;;;;;;;45.28;18.13;;;;;;;-0.51;75.02;101126.50;4996953;28;20389;-69
2022/03/02 00:29:58;;;;;;;46.15;17.52;;;;;;;-0.50;75.31;101126.47;5006360;28;20492;-69
2022/03/02 00:32:23;;;;;;;41.50;16.38;;;;;;;-0.53;75.42;101111.03;5008283;28;20145;-70
2022/03/02 00:34:48;;;;;;;37.45;14.70;;;;;;;-0.46;75.47;101114.41;5005543;28;20061;-72
2022/03/02 00:37:17;;;;;;;30.90;15.02;;;;;;;-0.42;75.31;101103.22;5005663;28;20084;-69
2022/03/02 00:39:44;;;;;;;32.42;15.68;;;;;;;-0.37;75.31;101111.78;5006597;28;20049;-68
2022/03/02 00:42:10;;;;;;;26.02;13.95;;;;;;;-0.37;75.01;101103.16;5008208;28;20061;-68
2022/03/02 00:44:36;;;;;;;36.45;15.80;;;;;;;-0.41;76.08;101112.66;5005722;28;20571;-68
2022/03/02 00:47:05;;;;;;;28.13;14.75;;;;;;;-0.44;75.94;101109.28;5005520;28;20030;-68
2022/03/02 00:49:32;;;;;;;33.85;15.02;;;;;;;-0.49;76.12;101102.41;5007589;28;20029;-69
2022/03/02 00:51:59;;;;;;;29.70;14.75;;;;;;;-0.56;76.42;101105.06;5007845;28;20018;-67
2022/03/02 00:54:24;;;;;;;33.42;15.05;;;;;;;-0.63;76.85;101105.97;4997171;28;20096;-69
2022/03/02 00:56:50;;;;;;;33.35;14.55;;;;;;;-0.63;76.87;101105.97;5009372;28;20054;-69
2022/03/02 00:59:15;;;;;;;28.60;14.32;;;;;;;-0.65;76.94;101102.56;4998997;28;20395;-67
2022/03/02 01:01:41;;;;;;;45.08;16.77;;;;;;;-0.69;76.71;101106.88;5009234;28;20145;-68
2022/03/02 01:04:07;;;;;;;40.63;17.63;;;;;;;-0.71;77.34;101100.03;5011914;28;20022;-69
2022/03/02 01:06:32;;;;;;;32.83;15.65;;;;;;;-0.78;77.61;101094.06;4995169;28;20064;-70
2022/03/02 01:08:58;;;;;;;35.72;16.60;;;;;;;-0.79;77.36;101100.09;4988339;28;20559;-69
2022/03/02 01:11:23;;;;;;;37.05;15.45;;;;;;;-0.79;77.64;101100.94;5006314;28;20049;-70
2022/03/02 01:13:48;;;;;;;29.00;15.70;;;;;;;-0.78;77.93;101102.66;5002456;28;20045;-71
2022/03/02 01:16:15;;;;;;;32.00;14.80;;;;;;;-0.75;77.73;101089.75;5009991;28;20036;-69
2022/03/02 01:18:40;;;;;;;29.55;15.65;;;;;;;-0.73;77.83;101084.59;5005302;28;20014;-69
2022/03/02 01:21:06;;;;;;;32.45;15.52;;;;;;;-0.71;77.38;101080.28;5008221;28;20411;-68
2022/03/02 01:23:32;;;;;;;30.98;16.27;;;;;;;-0.67;77.65;101087.09;5010176;28;20538;-70
2022/03/02 01:25:58;;;;;;;32.33;14.93;;;;;;;-0.65;77.26;101084.53;5011322;28;20057;-70
2022/03/02 01:28:23;;;;;;;28.98;15.23;;;;;;;-0.60;77.54;101086.19;5008319;28;20395;-70
2022/03/02 01:30:48;;;;;;;40.00;15.45;;;;;;;-0.58;77.47;101075.91;5002273;28;20508;-69
2022/03/02 01:33:14;;;;;;;33.65;15.68;;;;;;;-0.53;77.27;101076.69;5005123;28;20034;-66
2022/03/02 01:35:39;;;;;;;37.30;17.40;;;;;;;-0.50;77.62;101085.25;5009462;28;20496;-71
2022/03/02 01:38:04;;;;;;;42.53;16.58;;;;;;;-0.44;77.63;101081.78;5006073;28;20040;-70
2022/03/02 01:40:30;;;;;;;44.83;17.25;;;;;;;-0.39;77.09;101074.84;5009078;28;20653;-70
2022/03/02 01:42:55;;;;;;;37.92;17.73;;;;;;;-0.36;77.59;101074.84;5009823;28;20857;-70
2022/03/02 01:45:21;;;;;;;36.97;17.55;;;;;;;-0.32;77.69;101076.50;4992308;28;20026;-71
2022/03/02 01:47:47;;;;;;;45.05;17.20;;;;;;;-0.26;77.54;101061.00;5007380;28;20034;-71
2022/03/02 01:50:13;;;;;;;47.75;17.98;;;;;;;-0.24;77.19;101055.81;5008914;28;20491;-70
2022/03/02 01:52:39;;;;;;;41.45;17.50;;;;;;;-0.21;77.36;101060.09;5009126;28;20044;-69
2022/03/02 01:55:06;;;;;;;39.13;17.77;;;;;;;-0.17;77.58;101064.34;5010775;28;20029;-70
2022/03/02 01:57:32;;;;;;;38.25;16.48;;;;;;;-0.12;77.84;101053.09;5021050;22;20035;-70
2022/03/02 01:59:57;;;;;;;32.80;17.00;;;;;;;-0.12;77.78;101053.09;4990192;28;20400;-71
2022/03/02 02:02:23;;;;;;;33.80;16.05;;;;;;;-0.10;77.70;101048.81;4992228;28;20038;-70
2022/03/02 02:04:48;;;;;;;30.75;15.68;;;;;;;-0.12;77.63;101047.09;4991270;28;20117;-68
2022/03/02 02:07:13;;;;;;;31.58;15.15;;;;;;;-0.11;77.63;101046.22;4997456;28;20032;-68
2022/03/02 02:09:39;;;;;;;29.25;15.50;;;;;;;-0.13;77.53;101030.78;5011501;28;20021;-69
2022/03/02 02:12:04;;;;;;;31.65;16.15;;;;;;;-0.13;77.80;101033.38;5002806;28;20038;-67
2022/03/02 02:14:30;;;;;;;29.00;15.60;;;;;;;-0.15;78.25;101031.66;5008326;28;20054;-68
2022/03/02 02:16:55;;;;;;;32.38;15.85;;;;;;;-0.14;77.46;101028.25;5003258;28;20069;-69
2022/03/02 02:19:21;;;;;;;31.58;16.00;;;;;;;-0.19;77.70;101024.84;5005044;28;20064;-70
2022/03/02 02:21:48;;;;;;;35.67;16.13;;;;;;;-0.21;78.24;101011.13;5011289;28;20569;-70
2022/03/02 02:24:14;;;;;;;43.60;17.38;;;;;;;-0.25;78.29;101021.47;5008391;28;20126;-69
2022/03/02 02:26:40;;;;;;;37.03;17.05;;;;;;;-0.27;78.26;101024.91;5010674;28;20041;-70
2022/03/02 02:29:06;;;;;;;37.22;16.58;;;;;;;-0.31;78.31;101020.69;5011657;28;20044;-69
2022/03/02 02:31:31;;;;;;;37.08;16.25;;;;;;;-0.37;78.43;101026.75;5009376;28;20042;-68
2022/03/02 02:33:57;;;;;;;32.42;16.65;;;;;;;-0.42;78.63;101023.34;5010645;28;20029;-68
2022/03/02 02:36:22;;;;;;;32.65;15.52;;;;;;;-0.46;78.83;101020.84;5010322;28;20034;-68
2022/03/02 02:38:48;;;;;;;34.35;15.77;;;;;;;-0.53;79.38;101018.31;5010585;28;20649;-68
2022/03/02 02:41:15;;;;;;;32.63;16.02;;;;;;;-0.55;78.82;101017.47;5008538;28;20038;-68
2022/03/02 02:43:42;;;;;;;35.55;17.48;;;;;;;-0.62;79.69;101018.41;5008445;28;20041;-69
2022/03/02 02:46:08;;;;;;;41.65;17.25;;;;;;;-0.65;79.56;101009.84;5010441;28;20029;-68
2022/03/02 02:48:34;;;;;;;35.75;16.63;;;;;;;-0.69;80.12;101003.88;5010886;28;20030;-69
2022/03/02 02:50:59;;;;;;;41.28;17.45;;;;;;;-0.72;80.15;101001.31;5010225;28;20033;-69
2022/03/02 02:53:24;;;;;;;35.83;17.15;;;;;;;-0.74;80.17;100992.78;5009839;28;20101;-67
2022/03/02 02:55:50;;;;;;;33.85;16.90;;;;;;;-0.78;80.16;100989.38;5009845;28;20065;-69
2022/03/02 02:58:15;;;;;;;35.13;17.20;;;;;;;-0.79;80.74;100987.66;5005801;28;20411;-69
2022/03/02 03:00:45;;;;;;;32.63;16.85;;;;;;;-0.79;80.35;100994.53;5009502;28;20091;-70
2022/03/02 03:03:11;;;;;;;27.60;15.52;;;;;;;-0.79;80.50;100994.53;5009234;28;20045;-69
2022/03/02 03:05:36;;;;;;;32.63;16.73;;;;;;;-0.79;80.79;100992.78;5008419;28;20026;-69
2022/03/02 03:08:10;;;;;;;30.90;16.88;;;;;;;-0.76;81.16;100985.06;5009191;28;20510;-69
2022/03/02 03:10:36;;;;;;;31.90;16.13;;;;;;;-0.80;80.48;100983.38;5009976;28;20041;-70
2022/03/02 03:13:02;;;;;;;33.97;17.27;;;;;;;-0.81;80.88;100997.13;5008676;28;20026;-71
2022/03/02 03:15:28;;;;;;;36.80;18.13;;;;;;;-0.83;80.98;100996.28;5009884;28;20038;-71
2022/03/02 03:17:54;;;;;;;41.90;18.35;;;;;;;-0.85;81.03;100989.44;5008318;28;20033;-69
2022/03/02 03:20:24;;;;;;;30.05;17.23;;;;;;;-0.89;81.00;100988.63;5010054;28;20404;-69
2022/03/02 03:22:50;;;;;;;34.90;17.38;;;;;;;-0.89;80.85;100991.19;5010166;28;20026;-70
2022/03/02 03:25:16;;;;;;;34.97;17.50;;;;;;;-0.84;81.04;100986.84;5007761;28;20036;-71
2022/03/02 03:27:42;;;;;;;31.58;16.48;;;;;;;-0.82;80.71;100979.94;5011356;28;20036;-70
2022/03/02 03:30:09;;;;;;;35.05;17.25;;;;;;;-0.86;80.72;100974.84;5006700;28;20499;-69
2022/03/02 03:32:35;;;;;;;36.05;17.52;;;;;;;-0.86;80.95;100975.69;5007254;28;20030;-68
2022/03/02 03:35:04;;;;;;;39.08;16.98;;;;;;;-0.82;80.92;100984.25;5007898;28;20041;-70
2022/03/02 03:37:29;;;;;;;36.28;17.98;;;;;;;-0.84;80.77;100981.69;5009877;28;20033;-68
2022/03/02 03:39:55;;;;;;;44.15;18.50;;;;;;;-0.84;80.68;100986.84;5010544;28;20030;-69
2022/03/02 03:42:20;;;;;;;39.67;18.10;;;;;;;-0.85;80.60;100990.28;5007445;28;20139;-71
2022/03/02 03:44:46;;;;;;;33.22;15.95;;;;;;;-0.85;81.14;100995.44;5008589;28;20120;-72
2022/03/02 03:47:11;;;;;;;33.80;17.60;;;;;;;-0.86;80.78;100988.56;5008078;28;20042;-71
2022/03/02 03:49:36;;;;;;;38.22;17.40;;;;;;;-0.85;81.01;100982.56;5007110;28;20049;-70
2022/03/02 03:52:03;;;;;;;35.00;17.48;;;;;;;-0.83;81.01;100977.41;5008051;28;20045;-70
2022/03/02 03:54:28;;;;;;;29.35;16.05;;;;;;;-0.84;81.05;100979.13;5015256;28;20017;-69
2022/03/02 03:56:53;;;;;;;46.42;19.73;;;;;;;-0.81;81.11;100973.94;5033072;28;20134;-70
2022/03/02 03:59:19;;;;;;;37.70;17.25;;;;;;;-0.82;80.93;100979.09;5032244;28;20030;-71
2022/03/02 04:01:44;;;;;;;40.13;18.80;;;;;;;-0.82;81.01;100972.22;5026726;28;20052;-69
2022/03/02 04:04:09;;;;;;;36.80;16.90;;;;;;;-0.77;80.86;100969.63;5009597;28;20030;-69
2022/03/02 04:06:35;;;;;;;43.22;18.00;;;;;;;-0.78;80.98;100971.34;5010957;28;20110;-70
2022/03/02 04:09:02;;;;;;;38.65;17.75;;;;;;;-0.78;80.99;100973.94;5008753;28;20042;-69
2022/03/02 04:11:28;;;;;;;43.30;18.85;;;;;;;-0.79;80.88;100969.63;5009107;28;20045;-70
2022/03/02 04:13:53;;;;;;;46.83;21.42;;;;;;;-0.78;80.83;100967.91;5005582;28;20038;-67
2022/03/02 04:16:19;;;;;;;34.50;17.80;;;;;;;-0.81;81.25;100967.94;5008603;28;20475;-70
2022/03/02 04:18:44;;;;;;;41.13;18.55;;;;;;;-0.86;81.01;100964.53;5007634;28;20037;-69
2022/03/02 04:21:09;;;;;;;42.38;17.73;;;;;;;-0.90;81.15;100960.28;5008231;28;20121;-70
2022/03/02 04:23:35;;;;;;;37.05;18.55;;;;;;;-0.93;81.38;100958.59;5007907;28;20034;-71
2022/03/02 04:26:00;;;;;;;35.70;17.90;;;;;;;-0.94;81.64;100951.75;5009060;28;20419;-70
2022/03/02 04:28:26;;;;;;;35.17;17.70;;;;;;;-0.92;82.07;100944.88;5010025;28;20029;-70
2022/03/02 04:30:52;;;;;;;46.05;20.77;;;;;;;-0.87;82.33;100937.97;5012921;28;20017;-69
2022/03/02 04:33:17;;;;;;;41.40;19.20;;;;;;;-0.85;82.19;100945.69;5012255;28;20539;-70
2022/03/02 04:35:42;;;;;;;39.78;18.70;;;;;;;-0.86;81.79;100946.53;5013319;28;20035;-67
2022/03/02 04:38:10;;;;;;;44.60;19.58;;;;;;;-0.84;82.18;100944.81;5012375;28;20561;-69
2022/03/02 04:40:35;;;;;;;40.50;18.52;;;;;;;-0.79;81.72;100937.88;5012695;28;20050;-70
2022/03/02 04:43:01;;;;;;;46.03;19.95;;;;;;;-0.78;81.42;100934.44;5008647;28;20052;-70
2022/03/02 04:45:27;;;;;;;39.45;17.15;;;;;;;-0.78;81.05;100937.88;5012634;28;20120;-68
2022/03/02 04:47:54;;;;;;;35.00;17.10;;;;;;;-0.75;81.59;100939.56;5012579;28;20030;-67
2022/03/02 04:50:19;;;;;;;38.90;18.15;;;;;;;-0.78;81.92;100942.16;5012189;28;20033;-69
2022/03/02 04:52:45;;;;;;;39.65;18.77;;;;;;;-0.82;81.87;100936.19;5005061;28;20038;-71
2022/03/02 04:55:11;;;;;;;40.75;19.33;;;;;;;-0.85;81.92;100931.09;5012249;28;20026;-70
2022/03/02 04:57:47;;;;;;;40.63;18.13;;;;;;;-0.89;81.86;100937.13;5011929;28;20092;-69
2022/03/02 05:00:14;;;;;;;37.63;17.10;;;;;;;-0.93;82.11;100925.13;5012941;28;20042;-70
2022/03/02 05:02:41;;;;;;;43.63;18.27;;;;;;;-0.93;82.49;100926.84;5011902;28;20500;-70
2022/03/02 05:05:09;;;;;;;37.13;18.38;;;;;;;-0.95;81.95;100931.19;5010189;28;20048;-69
2022/03/02 05:07:35;;;;;;;40.90;18.73;;;;;;;-1.00;82.28;100926.09;5011579;28;20037;-69
2022/03/02 05:10:02;;;;;;;47.83;20.65;;;;;;;-1.01;82.35;100919.22;5013202;28;20546;-72
2022/03/02 05:12:27;;;;;;;33.03;17.73;;;;;;;-1.02;82.35;100917.50;5011208;28;20105;-71
2022/03/02 05:14:52;;;;;;;43.53;19.30;;;;;;;-1.06;82.47;100916.69;5010795;28;20462;-72
2022/03/02 05:17:18;;;;;;;40.95;19.58;;;;;;;-1.07;83.03;100916.72;5011893;28;20108;-70
2022/03/02 05:19:44;;;;;;;48.30;19.73;;;;;;;-1.10;82.33;100912.44;5010719;28;20049;-70
2022/03/02 05:22:09;;;;;;;38.45;19.33;;;;;;;-1.16;82.93;100914.22;5012140;28;20029;-69
2022/03/02 05:24:35;;;;;;;46.10;18.75;;;;;;;-1.20;83.15;100909.97;5007522;28;20026;-70
2022/03/02 05:27:00;;;;;;;40.65;18.70;;;;;;;-1.26;83.25;100916.00;5013208;28;20581;-69
2022/03/02 05:29:26;;;;;;;46.47;23.05;;;;;;;-1.30;83.21;100916.88;5009242;28;20516;-71
2022/03/02 05:31:51;;;;;;;44.42;20.35;;;;;;;-1.35;83.17;100924.66;5010044;28;20041;-69
2022/03/02 05:34:16;;;;;;;42.10;20.10;;;;;;;-1.36;83.50;100929.81;5008568;28;20053;-69
2022/03/02 05:36:41;;;;;;;42.90;18.33;;;;;;;-1.39;83.66;100932.41;5011466;28;20033;-70
2022/03/02 05:39:07;;;;;;;43.70;20.75;;;;;;;-1.39;83.92;100922.97;5011276;28;20034;-67
2022/03/02 05:41:33;;;;;;;37.28;19.50;;;;;;;-1.35;83.81;100927.22;5008499;28;20030;-70
2022/03/02 05:43:59;;;;;;;43.45;19.20;;;;;;;-1.37;83.60;100933.22;5009499;28;20486;-71
2022/03/02 05:46:25;;;;;;;41.95;19.30;;;;;;;-0.81;86.10;100927.59;5011975;28;20033;-68
2022/03/02 05:48:52;;;;;;;36.03;17.85;;;;;;;-0.61;79.41;100931.69;5009625;28;20026;-71
2022/03/02 05:51:18;;;;;;;35.42;16.20;;;;;;;-0.78;80.26;100932.72;5010019;28;20589;-69
2022/03/02 05:53:43;;;;;;;39.55;18.25;;;;;;;-0.89;81.03;100933.69;5009443;28;20045;-71
2022/03/02 05:56:09;;;;;;;37.42;18.95;;;;;;;-1.03;81.87;100928.69;5010506;28;20052;-71
2022/03/02 05:58:34;;;;;;;45.88;18.25;;;;;;;-1.13;81.76;100930.47;5009975;28;20267;-70
2022/03/02 06:01:00;;;;;;;42.30;19.08;;;;;;;-1.20;81.69;100933.97;5008272;28;20037;-71
2022/03/02 06:03:25;;;;;;;41.10;18.25;;;;;;;-1.29;81.84;100936.63;5006507;28;20115;-69
2022/03/02 06:05:51;;;;;;;34.35;17.85;;;;;;;-1.32;81.73;100937.50;5011574;28;20034;-71
2022/03/02 06:08:16;;;;;;;38.33;18.27;;;;;;;-1.34;81.70;100933.22;5009836;28;20042;-70
2022/03/02 06:10:43;;;;;;;39.95;17.63;;;;;;;-1.30;81.64;100935.78;5011686;28;20540;-71
2022/03/02 06:13:09;;;;;;;41.05;18.95;;;;;;;-1.31;81.56;100941.75;5009266;28;20053;-73
2022/03/02 06:15:34;;;;;;;45.40;18.88;;;;;;;-1.28;81.73;100948.59;5012154;28;20066;-71
2022/03/02 06:18:01;;;;;;;39.25;17.13;;;;;;;-1.27;81.81;100953.72;5011170;28;20133;-72
2022/03/02 06:20:28;;;;;;;37.72;17.95;;;;;;;-1.21;81.78;100942.56;5010551;28;20037;-69
2022/03/02 06:22:54;;;;;;;42.38;18.63;;;;;;;-1.14;81.36;100940.78;5010995;28;20053;-72
2022/03/02 06:25:19;;;;;;;48.13;20.73;;;;;;;-1.05;81.12;100940.69;5002992;28;20041;-71
2022/03/02 06:27:44;;;;;;;80.00;31.63;;;;;;;-1.01;80.77;100950.09;5009205;28;20100;-70
2022/03/02 06:30:10;;;;;;;64.75;28.10;;;;;;;-0.94;80.57;100941.44;5010654;28;20029;-72
2022/03/02 06:32:36;;;;;;;65.50;26.98;;;;;;;-0.90;80.26;100940.56;5011428;28;20037;-73
2022/03/02 06:35:02;;;;;;;58.65;22.50;;;;;;;-0.79;80.20;100935.31;5009694;28;20049;-70
2022/03/02 06:37:27;;;;;;;45.72;19.63;;;;;;;-0.68;79.84;100945.50;5009863;28;20577;-71
2022/03/02 06:39:53;;;;;;;43.38;20.98;;;;;;;-0.57;79.48;100935.94;5011259;28;20115;-72
2022/03/02 06:42:23;;;;;;;56.65;22.63;;;;;;;-0.44;78.92;100941.81;5011014;28;20030;-72
2022/03/02 06:44:56;;;;;;;48.15;21.60;;;;;;;-0.39;78.42;100948.63;5008973;28;20056;-71
2022/03/02 06:47:27;;;;;;;42.95;20.33;;;;;;;-0.31;77.68;100951.94;5009669;28;20030;-71
2022/03/02 06:50:02;;;;;;;47.17;23.25;;;;;;;-0.23;77.81;100949.28;5008057;28;20070;-70
2022/03/02 06:52:35;;;;;;;62.53;22.00;;;;;;;-0.15;77.08;100952.66;5008685;28;20041;-71
2022/03/02 06:55:07;;;;;;;51.75;20.73;;;;;;;-0.06;76.95;100955.09;5009933;28;20125;-70
2022/03/02 06:57:33;;;;;;;44.78;21.00;;;;;;;0.00;76.91;100951.59;5007940;28;20544;-72
2022/03/02 07:00:04;;;;;;;44.45;17.80;;;;;;;0.06;76.51;100954.09;5008980;28;20034;-72
2022/03/02 07:02:38;;;;;;;47.78;19.33;;;;;;;0.10;76.42;100955.75;5010561;28;20030;-71
2022/03/02 07:05:05;;;;;;;41.63;18.58;;;;;;;0.17;76.54;100948.78;5008089;28;20172;-72
2022/03/02 07:07:31;;;;;;;47.00;20.05;;;;;;;0.23;76.50;100949.56;5009844;28;20399;-72
2022/03/02 07:09:59;;;;;;;56.28;21.08;;;;;;;0.28;76.36;100953.81;5008858;28;20026;-71
2022/03/02 07:12:26;;;;;;;54.78;21.95;;;;;;;0.29;76.19;100958.91;5001434;28;20025;-73
2022/03/02 07:14:53;;;;;;;55.47;20.08;;;;;;;0.33;76.32;100959.75;5007532;28;20404;-70
2022/03/02 07:17:18;;;;;;;48.65;20.63;;;;;;;0.35;76.16;100964.00;5007587;28;20388;-69
2022/03/02 07:19:43;;;;;;;36.80;18.63;;;;;;;0.35;76.49;100964.00;5007462;28;20515;-70
2022/03/02 07:22:11;;;;;;;46.33;18.20;;;;;;;0.41;75.81;100963.09;5005417;28;20514;-71
2022/03/02 07:24:46;;;;;;;34.67;16.77;;;;;;;0.42;75.55;100957.88;5008321;28;20025;-71
2022/03/02 07:27:15;;;;;;;35.45;17.02;;;;;;;0.44;75.63;100958.69;5006521;28;20026;-73
2022/03/02 07:29:41;;;;;;;44.17;18.05;;;;;;;0.50;75.74;100959.50;5008407;28;20026;-68
2022/03/02 07:32:07;;;;;;;35.97;16.85;;;;;;;0.50;75.09;100962.09;5008094;28;20042;-72
2022/03/02 07:34:34;;;;;;;31.23;15.90;;;;;;;0.51;75.43;100964.63;5008285;28;20045;-72
2022/03/02 07:37:00;;;;;;;44.35;17.20;;;;;;;0.45;75.43;100959.59;5008559;28;20034;-71
2022/03/02 07:39:27;;;;;;;34.83;17.98;;;;;;;0.46;75.74;100956.97;5006562;28;20123;-71
2022/03/02 07:41:52;;;;;;;41.03;18.23;;;;;;;0.47;76.00;100961.25;5013389;28;20040;-71
2022/03/02 07:44:18;;;;;;;39.63;17.40;;;;;;;0.46;75.68;100962.13;5007055;28;20117;-71
2022/03/02 07:46:45;;;;;;;43.72;19.38;;;;;;;0.49;75.54;100963.81;5023279;28;20257;-75
2022/03/02 07:49:10;;;;;;;49.67;18.63;;;;;;;0.51;75.20;100962.06;5034220;28;20077;-70
2022/03/02 07:51:38;;;;;;;34.25;18.75;;;;;;;0.57;74.44;100954.22;5032271;28;20018;-71
2022/03/02 07:54:05;;;;;;;34.47;17.63;;;;;;;0.66;74.74;100961.81;5023235;28;20045;-69
2022/03/02 07:56:31;;;;;;;37.30;16.50;;;;;;;0.71;73.88;100962.63;5011241;28;20041;-68
2022/03/02 07:59:01;;;;;;;41.05;17.23;;;;;;;0.83;73.56;100971.03;5041312;22;20053;-67
2022/03/02 08:01:27;;;;;;;39.22;15.55;;;;;;;0.93;73.46;100957.97;5028762;28;20068;-67
2022/03/02 08:03:56;;;;;;;46.92;15.23;;;;;;;1.02;72.46;100963.84;4996720;28;20084;-68
2022/03/02 08:06:23;;;;;;;32.63;15.00;;;;;;;1.12;71.97;100968.84;5028834;28;20082;-67
2022/03/02 08:08:50;;;;;;;33.72;16.58;;;;;;;1.23;71.69;100971.25;5028493;28;20033;-68
2022/03/02 08:11:16;;;;;;;30.77;15.52;;;;;;;1.36;71.66;100966.69;5028971;28;20116;-68
2022/03/02 08:13:42;;;;;;;39.58;15.57;;;;;;;1.52;71.26;100962.97;5031455;28;20116;-68
2022/03/02 08:16:07;;;;;;;38.40;16.50;;;;;;;1.66;70.77;100967.84;5029658;28;20406;-71
2022/03/02 08:18:33;;;;;;;32.05;14.38;;;;;;;1.81;69.85;100961.53;5029221;28;20030;-66
2022/03/02 08:20:59;;;;;;;32.70;15.32;;;;;;;2.01;69.96;100958.56;5029093;28;20526;-68
2022/03/02 08:23:35;;;;;;;32.05;16.63;;;;;;;2.23;69.33;100956.38;5024748;28;20055;-68
2022/03/02 08:26:02;;;;;;;36.45;16.48;;;;;;;2.39;68.73;100958.56;5028377;28;20030;-70
2022/03/02 08:28:32;;;;;;;32.00;15.68;;;;;;;2.60;67.69;100958.97;5015277;28;20037;-69
2022/03/02 08:30:58;;;;;;;35.63;15.68;;;;;;;2.68;67.31;100962.22;5029257;28;20095;-71
2022/03/02 08:33:29;;;;;;;32.78;14.40;;;;;;;2.70;66.03;100960.44;5027117;28;20044;-69
2022/03/02 08:35:55;;;;;;;29.42;13.48;;;;;;;2.84;65.01;100952.34;5028996;28;20033;-70
2022/03/02 08:38:21;;;;;;;29.80;14.55;;;;;;;2.98;64.82;100955.47;5025830;28;20132;-70
2022/03/02 08:40:47;;;;;;;38.60;15.18;;;;;;;3.06;64.50;100952.66;5023558;28;20037;-70
2022/03/02 08:43:15;;;;;;;45.60;15.23;;;;;;;3.12;64.35;100950.78;5026270;28;20028;-68
2022/03/02 08:45:44;;;;;;;29.35;14.75;;;;;;;3.20;63.87;100944.56;5028935;28;20026;-69
2022/03/02 08:48:11;;;;;;;38.47;14.25;;;;;;;3.28;63.39;100942.59;5028756;28;20065;-68
2022/03/02 08:50:36;;;;;;;31.95;15.07;;;;;;;3.44;62.70;100937.84;5027801;28;20123;-69
2022/03/02 08:53:02;;;;;;;29.00;14.32;;;;;;;3.52;62.39;100934.19;5027381;28;20167;-68
2022/03/02 08:55:31;;;;;;;39.58;15.93;;;;;;;3.66;62.56;100941.56;5028260;28;20042;-69
2022/03/02 08:57:57;;;;;;;31.35;16.30;;;;;;;3.69;61.95;100933.69;5027083;28;20115;-70
2022/03/02 09:00:22;;;;;;;35.97;15.73;;;;;;;3.74;61.25;100934.41;5027928;28;20033;-68
2022/03/02 09:02:51;;;;;;;31.23;15.27;;;;;;;3.81;60.72;100924.72;5027693;28;20038;-71
2022/03/02 09:05:17;;;;;;;30.90;14.40;;;;;;;3.86;60.33;100934.09;5027289;28;20041;-68
2022/03/02 09:07:43;;;;;;;30.08;14.15;;;;;;;3.86;59.64;100933.22;5027155;28;20384;-69
2022/03/02 09:10:08;;;;;;;41.95;18.35;;;;;;;3.95;59.51;100926.91;5028868;28;20091;-69
2022/03/02 09:12:34;;;;;;;30.52;15.40;;;;;;;4.02;59.40;100924.09;5022755;28;20097;-68
2022/03/02 09:15:00;;;;;;;32.33;13.57;;;;;;;4.10;59.31;100926.47;5028040;28;20041;-69
2022/03/02 09:17:26;;;;;;;33.95;14.77;;;;;;;4.10;58.33;100916.94;5031696;28;20037;-68
2022/03/02 09:19:52;;;;;;;33.78;15.73;;;;;;;4.15;58.39;100914.19;5031210;28;20041;-66
2022/03/02 09:22:20;;;;;;;40.17;15.95;;;;;;;4.17;57.59;100906.38;5031492;28;20163;-68
2022/03/02 09:24:46;;;;;;;39.75;15.82;;;;;;;4.27;57.80;100905.19;5031464;28;20021;-65
2022/03/02 09:27:12;;;;;;;37.35;14.90;;;;;;;4.29;57.82;100911.19;5031460;28;20086;-68
2022/03/02 09:29:42;;;;;;;35.83;14.98;;;;;;;4.38;57.04;100908.31;5030238;28;20123;-67
2022/03/02 09:32:08;;;;;;;34.40;16.60;;;;;;;4.42;56.99;100906.47;5031325;28;20041;-66
2022/03/02 09:34:33;;;;;;;33.97;13.95;;;;;;;4.30;57.10;100900.75;5030453;28;20393;-67
2022/03/02 09:37:02;;;;;;;32.38;14.60;;;;;;;4.37;57.14;100901.41;5032682;28;20049;-69
2022/03/02 09:39:27;;;;;;;37.72;16.75;;;;;;;4.42;58.01;100902.13;5031445;28;20032;-69
2022/03/02 09:41:59;;;;;;;30.45;15.60;;;;;;;4.53;57.44;100894.84;5030779;28;20034;-68
2022/03/02 09:44:42;;;;;;;29.70;15.05;;;;;;;4.49;57.04;100888.03;5022540;28;20056;-67
2022/03/02 09:47:09;;;;;;;35.72;16.35;;;;;;;4.48;57.19;100890.66;5024583;28;20602;-67
2022/03/02 09:49:36;;;;;;;29.98;15.00;;;;;;;4.49;56.91;100890.66;5030665;28;20065;-69
2022/03/02 09:52:04;;;;;;;28.95;14.25;;;;;;;4.51;56.49;100881.03;5024993;28;20386;-69
2022/03/02 09:54:33;;;;;;;28.25;15.50;;;;;;;4.64;56.59;100889.28;5030879;28;20048;-67
2022/03/02 09:57:01;;;;;;;;;;;;;;;4.85;56.14;100898.09;5014562;28;20030;-68
2022/03/02 09:59:35;;;;;;;33.22;13.98;;;;;;;5.14;55.41;100888.47;5029222;28;20701;-68
2022/03/02 10:02:02;;;;;;;30.20;13.38;;;;;;;5.40;53.98;100885.81;5031515;28;20040;-68
2022/03/02 10:04:29;;;;;;;27.27;12.85;;;;;;;5.71;53.20;100879.47;5030192;28;20044;-69
2022/03/02 10:07:26;;;;;;;28.92;13.43;;;;;;;5.93;52.35;100876.94;5031196;28;20066;-68
2022/03/02 10:09:48;;;;;;;35.25;12.75;;;;;;;6.09;50.99;100882.44;5029710;28;20145;-67
2022/03/02 10:12:18;;;;;;;30.88;13.27;;;;;;;6.23;50.13;100874.91;5030423;28;20026;-65
2022/03/02 10:14:44;;;;;;;30.67;13.85;;;;;;;6.12;50.21;100867.53;5023566;28;20293;-64
2022/03/02 10:17:11;;;;;;;31.75;13.88;;;;;;;6.24;50.33;100868.81;5030366;28;20061;-68
2022/03/02 10:19:52;;;;;;;34.67;14.63;;;;;;;6.32;49.43;100864.13;5014415;28;20481;-69
2022/03/02 10:22:20;;;;;;;25.52;12.85;;;;;;;6.23;49.38;100869.69;5029611;28;20029;-69
2022/03/02 10:24:49;;;;;;;28.83;13.65;;;;;;;6.22;49.32;100865.41;5029542;28;20026;-68
2022/03/02 10:27:51;;;;;;;24.15;13.52;;;;;;;6.14;48.71;100863.09;5029928;28;20032;-69
2022/03/02 10:30:18;;;;;;;28.38;12.55;;;;;;;6.01;47.54;100857.53;5030798;28;20040;-69
2022/03/02 10:32:43;;;;;;;37.08;12.70;;;;;;;5.89;47.88;100859.72;5030296;28;20037;-67
2022/03/02 10:35:12;;;;;;;28.02;12.90;;;;;;;5.79;48.55;100854.03;5015507;28;20487;-68
2022/03/02 10:37:39;;;;;;;;;;;;;;;5.68;48.08;100856.19;5028728;28;20102;-68
2022/03/02 10:40:15;;;;;;;27.35;12.63;;;;;;;5.64;47.86;100852.03;5028789;28;19935;-65
2022/03/02 10:42:58;;;;;;;22.40;11.10;;;;;;;5.59;47.39;100850.41;5029341;28;20626;-68
2022/03/02 10:45:24;;;;;;;23.95;12.20;;;;;;;5.61;46.97;100845.16;5029336;28;20033;-68
2022/03/02 10:47:55;;;;;;;29.73;12.10;;;;;;;5.55;47.44;100840.19;5030069;28;20052;-68
2022/03/02 10:50:23;;;;;;;28.35;11.55;;;;;;;5.60;46.67;100846.06;5020087;28;20037;-69
2022/03/02 10:52:48;;;;;;;24.67;12.05;;;;;;;5.63;47.73;100842.50;5029701;28;20035;-69
2022/03/02 10:55:14;;;;;;;26.92;12.27;;;;;;;5.76;47.24;100855.00;5027559;28;20104;-70
2022/03/02 10:57:40;;;;;;;23.95;11.00;;;;;;;5.91;47.43;100852.72;5025907;28;20026;-73
2022/03/02 11:00:19;;;;;;;26.08;12.32;;;;;;;5.88;46.35;100843.25;5028334;28;20037;-68
2022/03/02 11:02:46;;;;;;;23.10;11.25;;;;;;;5.84;45.89;100841.69;5019615;28;20513;-68
2022/03/02 11:05:15;;;;;;;23.92;11.52;;;;;;;5.89;46.04;100841.50;5027062;28;20141;-68
2022/03/02 11:07:41;;;;;;;20.85;10.60;;;;;;;6.00;46.11;100836.75;5028437;28;20038;-68
2022/03/02 11:10:10;;;;;;;27.70;11.18;;;;;;;6.17;44.89;100834.34;5029506;28;20510;-69